Terminal Aerodrome Forecast
Issued by NWS Missoula, MT

Home | Current Version | Previous Version | Text Only | Print | Product List | Glossary On
Versions: 1 2 3 4 5 6 7 8 9 10 11 12 13
000
FTUS45 KMSO 050542
TAFMSO
TAF
KMSO 050542Z 0506/0606 VRB05KT P6SM SKC
     FM051000 12012G20KT P6SM SCT020 BKN100
     FM052000 02010G18KT P6SM VCSH SCT100=

USA.gov is the U.S. government's official web portal to all federal, state and local government web resources and services.